sensor_id;sensor_type;location;lat;lon;timestamp;P1;durP1;ratioP1;P2;durP2;ratioP2
41657;SDS011;27347;57.132;-2.084;2022-08-05T00:00:31;1.40;;;0.93;;
41657;SDS011;27347;57.132;-2.084;2022-08-05T00:02:57;1.15;;;0.80;;
41657;SDS011;27347;57.132;-2.084;2022-08-05T00:05:22;1.50;;;0.95;;
41657;SDS011;27347;57.132;-2.084;2022-08-05T00:07:48;1.85;;;0.80;;
41657;SDS011;27347;57.132;-2.084;2022-08-05T00:10:13;2.10;;;0.88;;
41657;SDS011;27347;57.132;-2.084;2022-08-05T00:12:39;2.80;;;0.85;;
41657;SDS011;27347;57.132;-2.084;2022-08-05T00:15:04;5.45;;;1.02;;
41657;SDS011;27347;57.132;-2.084;2022-08-05T00:17:30;3.13;;;1.15;;
41657;SDS011;27347;57.132;-2.084;2022-08-05T00:19:56;2.80;;;0.95;;
41657;SDS011;27347;57.132;-2.084;2022-08-05T00:22:21;3.35;;;1.40;;
41657;SDS011;27347;57.132;-2.084;2022-08-05T00:24:47;1.63;;;1.00;;
41657;SDS011;27347;57.132;-2.084;2022-08-05T00:27:12;3.80;;;1.00;;
41657;SDS011;27347;57.132;-2.084;2022-08-05T00:29:38;2.05;;;0.82;;
41657;SDS011;27347;57.132;-2.084;2022-08-05T00:32:03;1.70;;;0.77;;
41657;SDS011;27347;57.132;-2.084;2022-08-05T00:34:30;1.08;;;0.70;;
41657;SDS011;27347;57.132;-2.084;2022-08-05T00:36:55;3.03;;;0.88;;
41657;SDS011;27347;57.132;-2.084;2022-08-05T00:39:21;3.00;;;0.73;;
41657;SDS011;27347;57.132;-2.084;2022-08-05T00:41:46;2.50;;;0.82;;
41657;SDS011;27347;57.132;-2.084;2022-08-05T00:44:12;4.95;;;0.80;;
41657;SDS011;27347;57.132;-2.084;2022-08-05T00:46:37;1.38;;;0.50;;
41657;SDS011;27347;57.132;-2.084;2022-08-05T00:49:03;1.33;;;0.85;;
41657;SDS011;27347;57.132;-2.084;2022-08-05T00:51:28;1.88;;;1.10;;
41657;SDS011;27347;57.132;-2.084;2022-08-05T00:53:54;1.08;;;0.90;;
41657;SDS011;27347;57.132;-2.084;2022-08-05T00:56:19;2.50;;;0.90;;
41657;SDS011;27347;57.132;-2.084;2022-08-05T00:58:45;1.88;;;0.55;;
41657;SDS011;27347;57.132;-2.084;2022-08-05T01:01:11;0.93;;;0.68;;
41657;SDS011;27347;57.132;-2.084;2022-08-05T01:03:37;5.32;;;0.88;;
41657;SDS011;27347;57.132;-2.084;2022-08-05T01:06:03;1.45;;;0.88;;
41657;SDS011;27347;57.132;-2.084;2022-08-05T01:08:28;1.20;;;0.60;;
41657;SDS011;27347;57.132;-2.084;2022-08-05T01:10:55;1.30;;;0.90;;
41657;SDS011;27347;57.132;-2.084;2022-08-05T01:16:12;1.38;;;0.88;;
41657;SDS011;27347;57.132;-2.084;2022-08-05T01:18:42;1.05;;;0.90;;
41657;SDS011;27347;57.132;-2.084;2022-08-05T01:23:43;2.72;;;1.02;;
41657;SDS011;27347;57.132;-2.084;2022-08-05T01:29:16;1.45;;;0.82;;
41657;SDS011;27347;57.132;-2.084;2022-08-05T01:31:47;2.10;;;0.80;;
41657;SDS011;27347;57.132;-2.084;2022-08-05T01:34:18;1.17;;;0.90;;
41657;SDS011;27347;57.132;-2.084;2022-08-05T01:36:49;0.98;;;0.75;;
41657;SDS011;27347;57.132;-2.084;2022-08-05T01:39:20;1.13;;;0.70;;
41657;SDS011;27347;57.132;-2.084;2022-08-05T01:41:46;1.00;;;0.82;;
41657;SDS011;27347;57.132;-2.084;2022-08-05T01:44:11;0.82;;;0.75;;
41657;SDS011;27347;57.132;-2.084;2022-08-05T01:46:38;2.13;;;0.88;;
41657;SDS011;27347;57.132;-2.084;2022-08-05T01:49:04;2.35;;;1.00;;
41657;SDS011;27347;57.132;-2.084;2022-08-05T01:51:32;3.10;;;1.00;;
41657;SDS011;27347;57.132;-2.084;2022-08-05T01:53:59;3.17;;;1.00;;
41657;SDS011;27347;57.132;-2.084;2022-08-05T01:56:29;1.65;;;0.80;;
41657;SDS011;27347;57.132;-2.084;2022-08-05T01:58:56;1.48;;;1.00;;
41657;SDS011;27347;57.132;-2.084;2022-08-05T02:01:23;4.13;;;1.15;;
41657;SDS011;27347;57.132;-2.084;2022-08-05T02:03:50;3.75;;;1.02;;
41657;SDS011;27347;57.132;-2.084;2022-08-05T02:06:16;1.98;;;1.00;;
41657;SDS011;27347;57.132;-2.084;2022-08-05T02:08:42;4.35;;;1.40;;
41657;SDS011;27347;57.132;-2.084;2022-08-05T02:11:09;4.55;;;1.10;;
41657;SDS011;27347;57.132;-2.084;2022-08-05T02:16:32;6.82;;;1.17;;
41657;SDS011;27347;57.132;-2.084;2022-08-05T02:21:58;3.00;;;1.00;;
41657;SDS011;27347;57.132;-2.084;2022-08-05T02:24:27;1.55;;;1.15;;
41657;SDS011;27347;57.132;-2.084;2022-08-05T02:27:00;4.13;;;1.00;;
41657;SDS011;27347;57.132;-2.084;2022-08-05T02:29:28;1.98;;;1.00;;
41657;SDS011;27347;57.132;-2.084;2022-08-05T02:31:55;2.47;;;1.30;;
41657;SDS011;27347;57.132;-2.084;2022-08-05T02:34:22;3.85;;;0.90;;
41657;SDS011;27347;57.132;-2.084;2022-08-05T02:36:56;3.67;;;1.10;;
41657;SDS011;27347;57.132;-2.084;2022-08-05T02:39:23;3.70;;;0.90;;
41657;SDS011;27347;57.132;-2.084;2022-08-05T02:41:49;1.27;;;0.93;;
41657;SDS011;27347;57.132;-2.084;2022-08-05T02:44:16;4.20;;;1.25;;
41657;SDS011;27347;57.132;-2.084;2022-08-05T02:46:42;2.05;;;1.02;;
41657;SDS011;27347;57.132;-2.084;2022-08-05T02:49:09;2.92;;;1.10;;
41657;SDS011;27347;57.132;-2.084;2022-08-05T02:51:37;3.92;;;1.05;;
41657;SDS011;27347;57.132;-2.084;2022-08-05T02:54:03;4.03;;;1.25;;
41657;SDS011;27347;57.132;-2.084;2022-08-05T02:56:29;1.27;;;0.98;;
41657;SDS011;27347;57.132;-2.084;2022-08-05T02:58:56;3.25;;;1.13;;
41657;SDS011;27347;57.132;-2.084;2022-08-05T03:01:24;1.65;;;0.98;;
41657;SDS011;27347;57.132;-2.084;2022-08-05T03:03:51;1.05;;;0.80;;
41657;SDS011;27347;57.132;-2.084;2022-08-05T03:06:19;2.92;;;1.10;;
41657;SDS011;27347;57.132;-2.084;2022-08-05T03:08:45;2.38;;;0.95;;
41657;SDS011;27347;57.132;-2.084;2022-08-05T03:11:21;1.60;;;1.00;;
41657;SDS011;27347;57.132;-2.084;2022-08-05T03:13:48;1.40;;;0.90;;
41657;SDS011;27347;57.132;-2.084;2022-08-05T03:16:14;4.60;;;0.90;;
41657;SDS011;27347;57.132;-2.084;2022-08-05T03:18:40;3.42;;;0.90;;
41657;SDS011;27347;57.132;-2.084;2022-08-05T03:21:05;5.32;;;1.10;;
41657;SDS011;27347;57.132;-2.084;2022-08-05T03:23:31;1.45;;;0.90;;
41657;SDS011;27347;57.132;-2.084;2022-08-05T03:25:57;6.35;;;1.50;;
41657;SDS011;27347;57.132;-2.084;2022-08-05T03:28:23;4.00;;;1.13;;
41657;SDS011;27347;57.132;-2.084;2022-08-05T03:30:49;1.83;;;1.00;;
41657;SDS011;27347;57.132;-2.084;2022-08-05T03:33:14;1.45;;;0.82;;
41657;SDS011;27347;57.132;-2.084;2022-08-05T03:35:40;3.35;;;1.00;;
41657;SDS011;27347;57.132;-2.084;2022-08-05T03:38:06;3.10;;;1.00;;
41657;SDS011;27347;57.132;-2.084;2022-08-05T03:40:32;1.85;;;0.98;;
41657;SDS011;27347;57.132;-2.084;2022-08-05T03:42:57;5.18;;;1.05;;
41657;SDS011;27347;57.132;-2.084;2022-08-05T03:45:23;1.38;;;0.93;;
41657;SDS011;27347;57.132;-2.084;2022-08-05T03:47:48;4.25;;;0.90;;
41657;SDS011;27347;57.132;-2.084;2022-08-05T03:50:14;3.30;;;0.85;;
41657;SDS011;27347;57.132;-2.084;2022-08-05T03:52:41;2.17;;;1.00;;
41657;SDS011;27347;57.132;-2.084;2022-08-05T03:55:18;2.30;;;0.80;;
41657;SDS011;27347;57.132;-2.084;2022-08-05T03:57:48;4.30;;;1.20;;
41657;SDS011;27347;57.132;-2.084;2022-08-05T04:00:15;4.47;;;1.15;;
41657;SDS011;27347;57.132;-2.084;2022-08-05T04:02:41;2.08;;;0.95;;
41657;SDS011;27347;57.132;-2.084;2022-08-05T04:05:09;3.05;;;1.08;;
41657;SDS011;27347;57.132;-2.084;2022-08-05T04:07:37;4.53;;;0.98;;
41657;SDS011;27347;57.132;-2.084;2022-08-05T04:10:03;0.77;;;0.77;;
41657;SDS011;27347;57.132;-2.084;2022-08-05T04:12:29;2.75;;;1.02;;
41657;SDS011;27347;57.132;-2.084;2022-08-05T04:14:55;3.83;;;1.00;;
41657;SDS011;27347;57.132;-2.084;2022-08-05T04:17:21;2.15;;;1.05;;
41657;SDS011;27347;57.132;-2.084;2022-08-05T04:19:47;4.90;;;1.70;;
41657;SDS011;27347;57.132;-2.084;2022-08-05T04:22:13;3.30;;;1.10;;
41657;SDS011;27347;57.132;-2.084;2022-08-05T04:24:39;2.05;;;1.10;;
41657;SDS011;27347;57.132;-2.084;2022-08-05T04:27:06;3.15;;;1.40;;
41657;SDS011;27347;57.132;-2.084;2022-08-05T04:29:31;4.72;;;0.95;;
41657;SDS011;27347;57.132;-2.084;2022-08-05T04:31:57;5.53;;;1.30;;
41657;SDS011;27347;57.132;-2.084;2022-08-05T04:34:22;1.92;;;1.05;;
41657;SDS011;27347;57.132;-2.084;2022-08-05T04:36:47;3.63;;;1.00;;
41657;SDS011;27347;57.132;-2.084;2022-08-05T04:39:13;4.03;;;1.20;;
41657;SDS011;27347;57.132;-2.084;2022-08-05T04:41:39;4.60;;;1.17;;
41657;SDS011;27347;57.132;-2.084;2022-08-05T04:44:04;3.45;;;1.10;;
41657;SDS011;27347;57.132;-2.084;2022-08-05T04:46:30;4.60;;;1.15;;
41657;SDS011;27347;57.132;-2.084;2022-08-05T04:48:55;4.05;;;1.38;;
41657;SDS011;27347;57.132;-2.084;2022-08-05T04:51:21;7.25;;;1.52;;
41657;SDS011;27347;57.132;-2.084;2022-08-05T04:53:46;4.20;;;1.30;;
41657;SDS011;27347;57.132;-2.084;2022-08-05T04:56:12;3.17;;;1.25;;
41657;SDS011;27347;57.132;-2.084;2022-08-05T04:58:38;5.68;;;1.10;;
41657;SDS011;27347;57.132;-2.084;2022-08-05T05:01:04;1.77;;;1.10;;
41657;SDS011;27347;57.132;-2.084;2022-08-05T05:03:30;3.72;;;1.63;;
41657;SDS011;27347;57.132;-2.084;2022-08-05T05:05:55;7.63;;;1.23;;
41657;SDS011;27347;57.132;-2.084;2022-08-05T05:08:20;3.50;;;1.38;;
41657;SDS011;27347;57.132;-2.084;2022-08-05T05:10:46;4.45;;;1.20;;
41657;SDS011;27347;57.132;-2.084;2022-08-05T05:13:12;2.53;;;1.30;;
41657;SDS011;27347;57.132;-2.084;2022-08-05T05:15:39;2.97;;;1.33;;
41657;SDS011;27347;57.132;-2.084;2022-08-05T05:18:05;4.78;;;1.40;;
41657;SDS011;27347;57.132;-2.084;2022-08-05T05:20:31;7.95;;;1.75;;
41657;SDS011;27347;57.132;-2.084;2022-08-05T05:22:57;4.32;;;1.55;;
41657;SDS011;27347;57.132;-2.084;2022-08-05T05:25:24;2.42;;;1.23;;
41657;SDS011;27347;57.132;-2.084;2022-08-05T05:27:50;6.50;;;1.90;;
41657;SDS011;27347;57.132;-2.084;2022-08-05T05:30:16;3.60;;;1.35;;
41657;SDS011;27347;57.132;-2.084;2022-08-05T05:32:42;4.07;;;1.50;;
41657;SDS011;27347;57.132;-2.084;2022-08-05T05:35:07;3.17;;;1.50;;
41657;SDS011;27347;57.132;-2.084;2022-08-05T05:37:33;4.68;;;1.42;;
41657;SDS011;27347;57.132;-2.084;2022-08-05T05:39:59;2.75;;;1.10;;
41657;SDS011;27347;57.132;-2.084;2022-08-05T05:42:24;4.00;;;1.20;;
41657;SDS011;27347;57.132;-2.084;2022-08-05T05:44:49;5.22;;;1.48;;
41657;SDS011;27347;57.132;-2.084;2022-08-05T05:47:15;4.93;;;1.20;;
41657;SDS011;27347;57.132;-2.084;2022-08-05T05:49:40;5.57;;;1.38;;
41657;SDS011;27347;57.132;-2.084;2022-08-05T05:52:05;6.57;;;1.50;;
41657;SDS011;27347;57.132;-2.084;2022-08-05T05:54:31;4.15;;;1.38;;
41657;SDS011;27347;57.132;-2.084;2022-08-05T05:56:56;8.43;;;1.33;;
41657;SDS011;27347;57.132;-2.084;2022-08-05T05:59:22;3.90;;;1.40;;
41657;SDS011;27347;57.132;-2.084;2022-08-05T06:01:48;4.65;;;1.40;;
41657;SDS011;27347;57.132;-2.084;2022-08-05T06:04:13;2.58;;;1.20;;
41657;SDS011;27347;57.132;-2.084;2022-08-05T06:06:39;3.13;;;1.55;;
41657;SDS011;27347;57.132;-2.084;2022-08-05T06:09:09;2.45;;;1.77;;
41657;SDS011;27347;57.132;-2.084;2022-08-05T06:11:35;6.93;;;2.13;;
41657;SDS011;27347;57.132;-2.084;2022-08-05T06:14:00;4.30;;;2.03;;
41657;SDS011;27347;57.132;-2.084;2022-08-05T06:16:26;3.08;;;1.60;;
41657;SDS011;27347;57.132;-2.084;2022-08-05T06:18:52;5.80;;;2.15;;
41657;SDS011;27347;57.132;-2.084;2022-08-05T06:21:17;5.53;;;1.67;;
41657;SDS011;27347;57.132;-2.084;2022-08-05T06:23:43;3.60;;;1.60;;
41657;SDS011;27347;57.132;-2.084;2022-08-05T06:26:09;5.78;;;1.25;;
41657;SDS011;27347;57.132;-2.084;2022-08-05T06:28:34;4.28;;;1.45;;
41657;SDS011;27347;57.132;-2.084;2022-08-05T06:31:01;7.18;;;2.40;;
41657;SDS011;27347;57.132;-2.084;2022-08-05T06:33:26;7.07;;;2.00;;
41657;SDS011;27347;57.132;-2.084;2022-08-05T06:35:52;6.70;;;2.22;;
41657;SDS011;27347;57.132;-2.084;2022-08-05T06:38:17;5.43;;;1.73;;
41657;SDS011;27347;57.132;-2.084;2022-08-05T06:40:43;4.47;;;2.15;;
41657;SDS011;27347;57.132;-2.084;2022-08-05T06:43:08;6.35;;;1.88;;
41657;SDS011;27347;57.132;-2.084;2022-08-05T06:45:34;6.28;;;1.80;;
41657;SDS011;27347;57.132;-2.084;2022-08-05T06:47:59;5.38;;;1.83;;
41657;SDS011;27347;57.132;-2.084;2022-08-05T06:50:24;5.25;;;2.65;;
41657;SDS011;27347;57.132;-2.084;2022-08-05T06:52:51;5.57;;;2.45;;
41657;SDS011;27347;57.132;-2.084;2022-08-05T06:55:16;6.78;;;2.70;;
41657;SDS011;27347;57.132;-2.084;2022-08-05T06:57:42;6.65;;;3.08;;
41657;SDS011;27347;57.132;-2.084;2022-08-05T07:00:07;5.18;;;2.67;;
41657;SDS011;27347;57.132;-2.084;2022-08-05T07:02:40;6.60;;;2.40;;
41657;SDS011;27347;57.132;-2.084;2022-08-05T07:05:06;6.15;;;2.22;;
41657;SDS011;27347;57.132;-2.084;2022-08-05T07:07:32;6.38;;;2.55;;
41657;SDS011;27347;57.132;-2.084;2022-08-05T07:09:57;5.10;;;2.65;;
41657;SDS011;27347;57.132;-2.084;2022-08-05T07:12:22;6.13;;;3.22;;
41657;SDS011;27347;57.132;-2.084;2022-08-05T07:15:06;4.88;;;2.65;;
41657;SDS011;27347;57.132;-2.084;2022-08-05T07:17:51;5.80;;;2.65;;
41657;SDS011;27347;57.132;-2.084;2022-08-05T07:20:16;4.18;;;2.85;;
41657;SDS011;27347;57.132;-2.084;2022-08-05T07:22:42;4.55;;;2.80;;
41657;SDS011;27347;57.132;-2.084;2022-08-05T07:25:07;7.03;;;3.47;;
41657;SDS011;27347;57.132;-2.084;2022-08-05T07:27:33;7.65;;;3.97;;
41657;SDS011;27347;57.132;-2.084;2022-08-05T07:29:58;9.63;;;4.90;;
41657;SDS011;27347;57.132;-2.084;2022-08-05T07:32:24;5.95;;;3.65;;
41657;SDS011;27347;57.132;-2.084;2022-08-05T07:34:49;5.93;;;3.42;;
41657;SDS011;27347;57.132;-2.084;2022-08-05T07:37:16;7.55;;;3.75;;
41657;SDS011;27347;57.132;-2.084;2022-08-05T07:39:41;7.30;;;3.78;;
41657;SDS011;27347;57.132;-2.084;2022-08-05T07:42:06;6.95;;;3.88;;
41657;SDS011;27347;57.132;-2.084;2022-08-05T07:44:32;7.15;;;3.80;;
41657;SDS011;27347;57.132;-2.084;2022-08-05T07:46:57;9.23;;;3.60;;
41657;SDS011;27347;57.132;-2.084;2022-08-05T07:49:22;6.80;;;4.07;;
41657;SDS011;27347;57.132;-2.084;2022-08-05T07:51:48;9.07;;;4.50;;
41657;SDS011;27347;57.132;-2.084;2022-08-05T07:54:13;6.95;;;3.60;;
41657;SDS011;27347;57.132;-2.084;2022-08-05T07:56:39;6.38;;;3.67;;
41657;SDS011;27347;57.132;-2.084;2022-08-05T07:59:04;7.78;;;4.43;;
41657;SDS011;27347;57.132;-2.084;2022-08-05T08:01:30;7.00;;;4.10;;
41657;SDS011;27347;57.132;-2.084;2022-08-05T08:03:55;6.53;;;3.97;;
41657;SDS011;27347;57.132;-2.084;2022-08-05T08:06:21;6.35;;;3.83;;
41657;SDS011;27347;57.132;-2.084;2022-08-05T08:08:47;9.20;;;5.40;;
41657;SDS011;27347;57.132;-2.084;2022-08-05T08:11:15;9.40;;;5.40;;
41657;SDS011;27347;57.132;-2.084;2022-08-05T08:13:40;11.10;;;5.45;;
41657;SDS011;27347;57.132;-2.084;2022-08-05T08:16:06;9.77;;;5.68;;
41657;SDS011;27347;57.132;-2.084;2022-08-05T08:18:32;8.30;;;5.45;;
41657;SDS011;27347;57.132;-2.084;2022-08-05T08:20:58;9.80;;;5.75;;
41657;SDS011;27347;57.132;-2.084;2022-08-05T08:23:29;12.93;;;6.95;;
41657;SDS011;27347;57.132;-2.084;2022-08-05T08:25:58;11.25;;;6.90;;
41657;SDS011;27347;57.132;-2.084;2022-08-05T08:28:30;11.45;;;6.88;;
41657;SDS011;27347;57.132;-2.084;2022-08-05T08:30:56;10.88;;;6.63;;
41657;SDS011;27347;57.132;-2.084;2022-08-05T08:33:22;10.23;;;6.38;;
41657;SDS011;27347;57.132;-2.084;2022-08-05T08:35:47;15.82;;;7.45;;
41657;SDS011;27347;57.132;-2.084;2022-08-05T08:38:12;14.23;;;8.30;;
41657;SDS011;27347;57.132;-2.084;2022-08-05T08:40:40;11.52;;;7.40;;
41657;SDS011;27347;57.132;-2.084;2022-08-05T08:43:05;14.98;;;7.72;;
41657;SDS011;27347;57.132;-2.084;2022-08-05T08:45:35;11.52;;;7.40;;
41657;SDS011;27347;57.132;-2.084;2022-08-05T08:48:02;10.07;;;7.03;;
41657;SDS011;27347;57.132;-2.084;2022-08-05T08:50:29;13.68;;;7.65;;
41657;SDS011;27347;57.132;-2.084;2022-08-05T08:52:58;12.27;;;7.43;;
41657;SDS011;27347;57.132;-2.084;2022-08-05T08:55:26;12.85;;;7.10;;
41657;SDS011;27347;57.132;-2.084;2022-08-05T08:57:51;13.93;;;6.93;;
41657;SDS011;27347;57.132;-2.084;2022-08-05T09:00:17;10.15;;;6.80;;
41657;SDS011;27347;57.132;-2.084;2022-08-05T09:02:43;13.98;;;6.35;;
41657;SDS011;27347;57.132;-2.084;2022-08-05T09:05:12;10.25;;;6.13;;
41657;SDS011;27347;57.132;-2.084;2022-08-05T09:07:37;9.40;;;6.68;;
41657;SDS011;27347;57.132;-2.084;2022-08-05T09:10:04;10.63;;;6.32;;
41657;SDS011;27347;57.132;-2.084;2022-08-05T09:12:29;11.13;;;6.10;;
41657;SDS011;27347;57.132;-2.084;2022-08-05T09:14:55;14.13;;;6.35;;
41657;SDS011;27347;57.132;-2.084;2022-08-05T09:17:21;13.60;;;6.07;;
41657;SDS011;27347;57.132;-2.084;2022-08-05T09:19:46;8.93;;;5.22;;
41657;SDS011;27347;57.132;-2.084;2022-08-05T09:22:12;12.68;;;6.47;;
41657;SDS011;27347;57.132;-2.084;2022-08-05T09:24:37;7.88;;;5.32;;
41657;SDS011;27347;57.132;-2.084;2022-08-05T09:27:06;8.73;;;5.38;;
41657;SDS011;27347;57.132;-2.084;2022-08-05T09:29:36;7.97;;;5.22;;
41657;SDS011;27347;57.132;-2.084;2022-08-05T09:32:07;9.35;;;5.53;;
41657;SDS011;27347;57.132;-2.084;2022-08-05T09:35:36;8.60;;;5.47;;
41657;SDS011;27347;57.132;-2.084;2022-08-05T09:37:35;8.48;;;5.20;;
41657;SDS011;27347;57.132;-2.084;2022-08-05T09:40:01;10.02;;;5.00;;
41657;SDS011;27347;57.132;-2.084;2022-08-05T09:42:27;10.15;;;5.13;;
41657;SDS011;27347;57.132;-2.084;2022-08-05T09:45:06;9.82;;;5.05;;
41657;SDS011;27347;57.132;-2.084;2022-08-05T09:47:32;8.57;;;4.97;;
41657;SDS011;27347;57.132;-2.084;2022-08-05T09:49:58;5.70;;;4.90;;
41657;SDS011;27347;57.132;-2.084;2022-08-05T09:52:25;6.95;;;4.70;;
41657;SDS011;27347;57.132;-2.084;2022-08-05T09:55:05;6.78;;;4.40;;
41657;SDS011;27347;57.132;-2.084;2022-08-05T10:05:07;6.82;;;5.13;;
41657;SDS011;27347;57.132;-2.084;2022-08-05T10:07:48;8.73;;;5.10;;
41657;SDS011;27347;57.132;-2.084;2022-08-05T10:10:21;6.95;;;5.00;;
41657;SDS011;27347;57.132;-2.084;2022-08-05T10:13:10;8.88;;;4.68;;
41657;SDS011;27347;57.132;-2.084;2022-08-05T10:15:39;7.65;;;5.45;;
41657;SDS011;27347;57.132;-2.084;2022-08-05T10:18:09;9.52;;;5.20;;
41657;SDS011;27347;57.132;-2.084;2022-08-05T10:20:37;8.30;;;6.13;;
41657;SDS011;27347;57.132;-2.084;2022-08-05T10:23:05;9.18;;;5.80;;
41657;SDS011;27347;57.132;-2.084;2022-08-05T10:25:31;10.90;;;5.72;;
41657;SDS011;27347;57.132;-2.084;2022-08-05T10:27:56;7.95;;;5.80;;
41657;SDS011;27347;57.132;-2.084;2022-08-05T10:30:22;7.53;;;5.40;;
41657;SDS011;27347;57.132;-2.084;2022-08-05T10:32:48;6.78;;;5.10;;
41657;SDS011;27347;57.132;-2.084;2022-08-05T10:35:13;8.00;;;6.00;;
41657;SDS011;27347;57.132;-2.084;2022-08-05T10:37:39;8.98;;;6.28;;
41657;SDS011;27347;57.132;-2.084;2022-08-05T10:40:07;8.57;;;5.97;;
41657;SDS011;27347;57.132;-2.084;2022-08-05T10:42:39;9.70;;;6.23;;
41657;SDS011;27347;57.132;-2.084;2022-08-05T10:45:07;10.20;;;6.50;;
41657;SDS011;27347;57.132;-2.084;2022-08-05T10:47:33;10.75;;;6.32;;
41657;SDS011;27347;57.132;-2.084;2022-08-05T10:50:02;11.25;;;6.75;;
41657;SDS011;27347;57.132;-2.084;2022-08-05T10:52:43;7.95;;;6.60;;
41657;SDS011;27347;57.132;-2.084;2022-08-05T10:55:16;10.90;;;7.13;;
41657;SDS011;27347;57.132;-2.084;2022-08-05T10:57:42;9.77;;;6.60;;
41657;SDS011;27347;57.132;-2.084;2022-08-05T11:00:17;8.80;;;6.82;;
41657;SDS011;27347;57.132;-2.084;2022-08-05T11:05:22;8.18;;;6.35;;
41657;SDS011;27347;57.132;-2.084;2022-08-05T11:07:55;8.05;;;6.00;;
41657;SDS011;27347;57.132;-2.084;2022-08-05T11:10:31;10.27;;;6.88;;
41657;SDS011;27347;57.132;-2.084;2022-08-05T11:12:57;10.63;;;7.10;;
41657;SDS011;27347;57.132;-2.084;2022-08-05T11:15:27;9.32;;;6.72;;
41657;SDS011;27347;57.132;-2.084;2022-08-05T11:18:05;11.05;;;6.97;;
41657;SDS011;27347;57.132;-2.084;2022-08-05T11:20:40;9.93;;;7.28;;
41657;SDS011;27347;57.132;-2.084;2022-08-05T11:25:59;11.20;;;7.85;;
41657;SDS011;27347;57.132;-2.084;2022-08-05T11:35:52;11.27;;;8.02;;
41657;SDS011;27347;57.132;-2.084;2022-08-05T11:41:06;7.38;;;5.70;;
41657;SDS011;27347;57.132;-2.084;2022-08-05T11:43:32;8.60;;;5.97;;
41657;SDS011;27347;57.132;-2.084;2022-08-05T11:45:59;9.70;;;6.40;;
41657;SDS011;27347;57.132;-2.084;2022-08-05T11:48:25;8.05;;;5.68;;
41657;SDS011;27347;57.132;-2.084;2022-08-05T11:50:52;6.72;;;5.50;;
41657;SDS011;27347;57.132;-2.084;2022-08-05T11:53:18;8.27;;;5.00;;
41657;SDS011;27347;57.132;-2.084;2022-08-05T11:58:35;7.28;;;4.88;;
41657;SDS011;27347;57.132;-2.084;2022-08-05T12:01:11;8.32;;;5.18;;
41657;SDS011;27347;57.132;-2.084;2022-08-05T12:03:47;8.60;;;5.07;;
41657;SDS011;27347;57.132;-2.084;2022-08-05T12:06:15;9.73;;;5.75;;
41657;SDS011;27347;57.132;-2.084;2022-08-05T12:08:42;6.35;;;4.70;;
41657;SDS011;27347;57.132;-2.084;2022-08-05T12:11:09;7.07;;;4.78;;
41657;SDS011;27347;57.132;-2.084;2022-08-05T12:13:35;6.30;;;4.20;;
41657;SDS011;27347;57.132;-2.084;2022-08-05T12:16:03;6.32;;;4.15;;
41657;SDS011;27347;57.132;-2.084;2022-08-05T12:18:33;7.88;;;4.30;;
41657;SDS011;27347;57.132;-2.084;2022-08-05T12:21:11;5.65;;;4.22;;
41657;SDS011;27347;57.132;-2.084;2022-08-05T12:23:38;9.00;;;5.97;;
41657;SDS011;27347;57.132;-2.084;2022-08-05T12:26:04;7.97;;;6.97;;
41657;SDS011;27347;57.132;-2.084;2022-08-05T12:28:30;10.30;;;8.48;;
41657;SDS011;27347;57.132;-2.084;2022-08-05T12:30:57;9.05;;;8.10;;
41657;SDS011;27347;57.132;-2.084;2022-08-05T12:33:23;9.57;;;8.23;;
41657;SDS011;27347;57.132;-2.084;2022-08-05T12:35:49;11.50;;;8.25;;
41657;SDS011;27347;57.132;-2.084;2022-08-05T12:38:14;8.48;;;7.57;;
41657;SDS011;27347;57.132;-2.084;2022-08-05T12:40:40;9.20;;;7.35;;
41657;SDS011;27347;57.132;-2.084;2022-08-05T12:43:05;8.73;;;7.82;;
41657;SDS011;27347;57.132;-2.084;2022-08-05T12:45:31;10.13;;;8.15;;
41657;SDS011;27347;57.132;-2.084;2022-08-05T12:47:56;9.60;;;8.38;;
41657;SDS011;27347;57.132;-2.084;2022-08-05T12:50:22;11.23;;;8.02;;
41657;SDS011;27347;57.132;-2.084;2022-08-05T12:52:54;12.57;;;8.65;;
41657;SDS011;27347;57.132;-2.084;2022-08-05T12:55:22;10.55;;;7.70;;
41657;SDS011;27347;57.132;-2.084;2022-08-05T12:57:53;8.95;;;7.95;;
41657;SDS011;27347;57.132;-2.084;2022-08-05T13:00:20;11.45;;;8.13;;
41657;SDS011;27347;57.132;-2.084;2022-08-05T13:02:46;11.20;;;7.78;;
41657;SDS011;27347;57.132;-2.084;2022-08-05T13:05:11;9.75;;;7.45;;
41657;SDS011;27347;57.132;-2.084;2022-08-05T13:07:38;9.13;;;7.47;;
41657;SDS011;27347;57.132;-2.084;2022-08-05T13:10:04;13.48;;;7.72;;
41657;SDS011;27347;57.132;-2.084;2022-08-05T13:12:38;8.70;;;7.07;;
41657;SDS011;27347;57.132;-2.084;2022-08-05T13:15:04;9.07;;;7.32;;
41657;SDS011;27347;57.132;-2.084;2022-08-05T13:17:31;7.78;;;6.38;;
41657;SDS011;27347;57.132;-2.084;2022-08-05T13:20:07;5.63;;;5.13;;
41657;SDS011;27347;57.132;-2.084;2022-08-05T13:22:42;5.88;;;5.30;;
41657;SDS011;27347;57.132;-2.084;2022-08-05T13:25:12;7.72;;;6.07;;
41657;SDS011;27347;57.132;-2.084;2022-08-05T13:27:40;9.10;;;6.68;;
41657;SDS011;27347;57.132;-2.084;2022-08-05T13:30:11;7.70;;;6.00;;
41657;SDS011;27347;57.132;-2.084;2022-08-05T13:32:37;8.38;;;6.60;;
41657;SDS011;27347;57.132;-2.084;2022-08-05T13:35:04;7.13;;;5.78;;
41657;SDS011;27347;57.132;-2.084;2022-08-05T13:37:30;7.15;;;6.15;;
41657;SDS011;27347;57.132;-2.084;2022-08-05T13:39:56;7.70;;;5.85;;
41657;SDS011;27347;57.132;-2.084;2022-08-05T13:42:22;7.20;;;5.43;;
41657;SDS011;27347;57.132;-2.084;2022-08-05T13:44:54;6.18;;;5.55;;
41657;SDS011;27347;57.132;-2.084;2022-08-05T13:47:21;5.32;;;3.85;;
41657;SDS011;27347;57.132;-2.084;2022-08-05T13:49:47;7.55;;;4.88;;
41657;SDS011;27347;57.132;-2.084;2022-08-05T13:52:14;4.57;;;3.13;;
41657;SDS011;27347;57.132;-2.084;2022-08-05T13:54:41;7.40;;;2.10;;
41657;SDS011;27347;57.132;-2.084;2022-08-05T13:57:07;2.85;;;1.98;;
41657;SDS011;27347;57.132;-2.084;2022-08-05T13:59:33;3.38;;;2.20;;
41657;SDS011;27347;57.132;-2.084;2022-08-05T14:02:00;6.53;;;2.20;;
41657;SDS011;27347;57.132;-2.084;2022-08-05T14:04:26;2.67;;;1.60;;
41657;SDS011;27347;57.132;-2.084;2022-08-05T14:07:11;3.45;;;1.75;;
41657;SDS011;27347;57.132;-2.084;2022-08-05T14:09:37;2.85;;;1.95;;
41657;SDS011;27347;57.132;-2.084;2022-08-05T14:12:03;2.30;;;1.52;;
41657;SDS011;27347;57.132;-2.084;2022-08-05T14:14:28;2.40;;;1.17;;
41657;SDS011;27347;57.132;-2.084;2022-08-05T14:16:54;1.58;;;1.48;;
41657;SDS011;27347;57.132;-2.084;2022-08-05T14:19:19;3.92;;;1.52;;
41657;SDS011;27347;57.132;-2.084;2022-08-05T14:21:45;2.67;;;1.40;;
41657;SDS011;27347;57.132;-2.084;2022-08-05T14:24:10;1.85;;;1.27;;
41657;SDS011;27347;57.132;-2.084;2022-08-05T14:26:36;2.60;;;1.27;;
41657;SDS011;27347;57.132;-2.084;2022-08-05T14:29:02;2.40;;;1.23;;
41657;SDS011;27347;57.132;-2.084;2022-08-05T14:31:28;2.17;;;1.08;;
41657;SDS011;27347;57.132;-2.084;2022-08-05T14:33:54;4.97;;;1.25;;
41657;SDS011;27347;57.132;-2.084;2022-08-05T14:36:19;4.50;;;1.17;;
41657;SDS011;27347;57.132;-2.084;2022-08-05T14:38:45;2.60;;;1.13;;
41657;SDS011;27347;57.132;-2.084;2022-08-05T14:41:10;1.92;;;1.20;;
41657;SDS011;27347;57.132;-2.084;2022-08-05T14:43:36;2.30;;;1.55;;
41657;SDS011;27347;57.132;-2.084;2022-08-05T14:46:01;3.03;;;1.23;;
41657;SDS011;27347;57.132;-2.084;2022-08-05T14:48:27;3.90;;;1.58;;
41657;SDS011;27347;57.132;-2.084;2022-08-05T14:50:52;5.88;;;1.45;;
41657;SDS011;27347;57.132;-2.084;2022-08-05T14:53:18;5.10;;;1.50;;
41657;SDS011;27347;57.132;-2.084;2022-08-05T14:55:43;3.40;;;1.33;;
41657;SDS011;27347;57.132;-2.084;2022-08-05T14:58:09;4.10;;;1.45;;
41657;SDS011;27347;57.132;-2.084;2022-08-05T15:00:34;3.28;;;1.55;;
41657;SDS011;27347;57.132;-2.084;2022-08-05T15:03:00;3.13;;;1.48;;
41657;SDS011;27347;57.132;-2.084;2022-08-05T15:05:25;7.22;;;1.55;;
41657;SDS011;27347;57.132;-2.084;2022-08-05T15:07:51;3.97;;;1.40;;
41657;SDS011;27347;57.132;-2.084;2022-08-05T15:10:17;2.35;;;1.20;;
41657;SDS011;27347;57.132;-2.084;2022-08-05T15:12:42;2.72;;;1.80;;